Time;durP1;ratioP1;P1;durP2;ratioP2;P2;SDS_P1;SDS_P2;PMS_P1;PMS_P2;Temp;Humidity;BMP_temperature;BMP_pressure;BME280_temperature;BME280_humidity;BME280_pressure;Samples;Min_cycle;Max_cycle;Signal;HPM_P1;HPM_P2
2023/08/30 00:00:23;;;;;;;0.20;0.20;;;15.10;99.90;;;;;;5029863;28;20083;-78
2023/08/30 00:02:48;;;;;;;0.20;0.20;;;15.10;99.90;;;;;;5031194;28;20042;-78
2023/08/30 00:05:14;;;;;;;0.20;0.20;;;15.10;99.90;;;;;;5025286;28;20042;-78
2023/08/30 00:07:40;;;;;;;0.20;0.20;;;15.10;99.90;;;;;;5019225;28;20046;-78
2023/08/30 00:10:10;;;;;;;0.10;0.10;;;15.00;99.90;;;;;;5019571;28;20044;-78
2023/08/30 00:12:36;;;;;;;0.10;0.10;;;15.00;99.90;;;;;;5026052;28;20148;-78
2023/08/30 00:15:01;;;;;;;0.30;0.30;;;15.00;99.90;;;;;;5028659;28;20532;-78
2023/08/30 00:17:27;;;;;;;0.20;0.20;;;15.00;99.90;;;;;;5028354;28;20769;-78
2023/08/30 00:19:54;;;;;;;0.10;0.10;;;15.00;99.90;;;;;;5031332;28;20037;-78
2023/08/30 00:22:22;;;;;;;0.10;0.10;;;14.90;99.90;;;;;;5023404;28;20396;-78
2023/08/30 00:24:47;;;;;;;0.10;0.10;;;14.90;99.90;;;;;;5032845;28;20051;-78
2023/08/30 00:27:13;;;;;;;0.10;0.10;;;14.90;99.90;;;;;;5030677;28;20400;-78
2023/08/30 00:29:39;;;;;;;0.10;0.10;;;14.80;99.90;;;;;;5030840;28;20087;-78
2023/08/30 00:32:04;;;;;;;0.10;0.10;;;14.80;99.90;;;;;;5031099;28;20044;-78
2023/08/30 00:34:30;;;;;;;0.20;0.20;;;14.80;99.90;;;;;;5031838;28;20129;-78
2023/08/30 00:36:56;;;;;;;0.10;0.10;;;14.70;99.90;;;;;;5027280;28;20045;-78
2023/08/30 00:39:21;;;;;;;0.10;0.10;;;14.80;99.90;;;;;;5018018;28;20037;-78
2023/08/30 00:41:48;;;;;;;0.20;0.20;;;;;;;;;;5029220;28;20068;-78
2023/08/30 00:44:13;;;;;;;0.10;0.10;;;14.70;99.90;;;;;;5022550;28;20053;-78
2023/08/30 00:46:39;;;;;;;0.10;0.10;;;14.70;99.90;;;;;;5029180;28;20046;-78
2023/08/30 00:49:06;;;;;;;0.10;0.10;;;14.60;99.90;;;;;;5028921;28;20068;-78
2023/08/30 00:51:32;;;;;;;0.10;0.10;;;14.50;99.90;;;;;;5030312;28;20029;-77
2023/08/30 00:53:59;;;;;;;0.10;0.10;;;14.50;99.90;;;;;;5031298;28;20049;-78
2023/08/30 00:56:28;;;;;;;0.10;0.10;;;14.60;99.90;;;;;;5031193;28;20038;-78
2023/08/30 00:58:55;;;;;;;0.10;0.10;;;14.50;99.90;;;;;;5029771;28;20458;-77
2023/08/30 01:01:21;;;;;;;0.20;0.20;;;14.50;99.90;;;;;;5027188;28;20037;-77
2023/08/30 01:03:46;;;;;;;0.10;0.10;;;14.50;99.90;;;;;;5037038;28;20130;-78
2023/08/30 01:06:13;;;;;;;0.20;0.20;;;14.40;99.90;;;;;;5030050;28;20033;-78
2023/08/30 01:08:40;;;;;;;0.10;0.10;;;14.40;99.90;;;;;;5047435;28;20124;-78
2023/08/30 01:11:24;;;;;;;0.20;0.20;;;14.40;99.90;;;;;;5025480;28;20095;-78
2023/08/30 01:14:08;;;;;;;0.10;0.10;;;14.40;99.90;;;;;;5046976;28;20048;-77
2023/08/30 01:16:36;;;;;;;0.10;0.10;;;14.30;99.90;;;;;;5031400;28;20045;-78
2023/08/30 01:19:14;;;;;;;0.10;0.10;;;14.30;99.90;;;;;;5031362;28;20048;-78
2023/08/30 01:22:05;;;;;;;0.10;0.10;;;14.30;99.90;;;;;;5030678;28;20787;-78
2023/08/30 01:24:41;;;;;;;0.20;0.20;;;14.30;99.90;;;;;;5030806;28;20051;-78
2023/08/30 01:27:11;;;;;;;0.13;0.13;;;14.30;99.90;;;;;;5029336;28;20053;-77
2023/08/30 01:29:40;;;;;;;0.20;0.20;;;14.20;99.90;;;;;;5030780;28;20552;-77
2023/08/30 01:32:09;;;;;;;0.10;0.10;;;14.20;99.90;;;;;;5048767;28;20040;-77
2023/08/30 01:34:36;;;;;;;0.20;0.20;;;14.20;99.90;;;;;;5029434;28;20057;-78
2023/08/30 01:37:04;;;;;;;0.10;0.10;;;;;;;;;;5032245;28;20090;-78
2023/08/30 01:39:31;;;;;;;0.17;0.17;;;14.20;99.90;;;;;;5031137;28;20500;-80
2023/08/30 01:42:00;;;;;;;0.10;0.10;;;14.20;99.90;;;;;;5027474;28;20043;-78
2023/08/30 01:44:28;;;;;;;0.10;0.10;;;14.10;99.90;;;;;;5031895;28;20492;-78
2023/08/30 01:46:55;;;;;;;0.10;0.10;;;14.10;99.90;;;;;;5041106;28;20048;-78
2023/08/30 01:49:21;;;;;;;0.10;0.10;;;14.10;99.90;;;;;;5027790;28;20040;-78
2023/08/30 01:51:49;;;;;;;0.10;0.10;;;14.10;99.90;;;;;;5049521;28;20037;-78
2023/08/30 01:54:18;;;;;;;0.10;0.10;;;14.10;99.90;;;;;;5030736;28;20072;-78
2023/08/30 01:56:47;;;;;;;0.10;0.10;;;14.10;99.90;;;;;;5046704;28;20428;-78
2023/08/30 01:59:13;;;;;;;0.20;0.20;;;14.10;99.90;;;;;;5030356;28;20518;-78
2023/08/30 02:01:39;;;;;;;0.13;0.13;;;14.10;99.90;;;;;;5047724;28;20052;-78
2023/08/30 02:04:04;;;;;;;0.20;0.20;;;14.10;99.90;;;;;;5027937;28;20424;-78
2023/08/30 02:06:45;;;;;;;0.20;0.20;;;14.10;99.90;;;;;;5045695;28;20041;-77
2023/08/30 02:09:58;;;;;;;0.20;0.20;;;14.00;99.90;;;;;;5022355;28;20033;-78
2023/08/30 02:12:27;;;;;;;0.10;0.10;;;14.00;99.90;;;;;;4965673;28;20405;-78
2023/08/30 02:14:53;;;;;;;0.15;0.15;;;14.00;99.90;;;;;;4983599;28;20076;-78
2023/08/30 02:17:19;;;;;;;0.15;0.15;;;13.90;99.90;;;;;;5001901;28;20051;-78
2023/08/30 02:19:45;;;;;;;0.10;0.10;;;13.90;99.90;;;;;;5049250;28;20397;-78
2023/08/30 02:22:12;;;;;;;0.20;0.20;;;13.90;99.90;;;;;;5048374;28;20094;-78
2023/08/30 02:24:37;;;;;;;0.20;0.20;;;13.90;99.90;;;;;;5048828;28;20506;-78
2023/08/30 02:27:03;;;;;;;0.10;0.10;;;13.90;99.90;;;;;;5048429;28;20106;-78
2023/08/30 02:29:29;;;;;;;0.10;0.10;;;13.90;99.90;;;;;;5027582;28;20091;-78
2023/08/30 02:31:55;;;;;;;0.10;0.10;;;13.90;99.90;;;;;;5048596;28;20041;-77
2023/08/30 02:34:20;;;;;;;0.10;0.10;;;13.90;99.90;;;;;;5024237;28;20587;-77
2023/08/30 02:36:46;;;;;;;0.10;0.10;;;13.90;99.90;;;;;;5057686;28;20042;-77
2023/08/30 02:39:15;;;;;;;0.10;0.10;;;13.90;99.90;;;;;;5051687;28;20044;-78
2023/08/30 02:41:40;;;;;;;0.20;0.20;;;13.90;99.90;;;;;;5037930;28;20051;-78
2023/08/30 02:44:11;;;;;;;0.13;0.13;;;13.90;99.90;;;;;;5029879;28;20433;-78
2023/08/30 02:46:41;;;;;;;0.13;0.13;;;13.90;99.90;;;;;;5030953;28;20140;-77
2023/08/30 02:49:07;;;;;;;0.10;0.10;;;13.90;99.90;;;;;;5029230;28;20099;-78
2023/08/30 02:51:32;;;;;;;0.10;0.10;;;13.90;99.90;;;;;;5030893;28;20540;-78
2023/08/30 02:53:58;;;;;;;0.10;0.10;;;13.90;99.90;;;;;;5031441;28;20045;-78
2023/08/30 02:56:25;;;;;;;0.10;0.10;;;13.90;99.90;;;;;;5031441;28;20094;-77
2023/08/30 02:58:50;;;;;;;0.10;0.10;;;13.90;99.90;;;;;;5031534;28;20404;-77
2023/08/30 03:01:16;;;;;;;0.20;0.20;;;13.90;99.90;;;;;;5047315;28;20044;-77
2023/08/30 03:03:42;;;;;;;0.20;0.20;;;13.90;99.90;;;;;;5021655;28;20121;-78
2023/08/30 03:06:07;;;;;;;0.10;0.10;;;13.90;99.90;;;;;;5028846;28;20045;-78
2023/08/30 03:08:33;;;;;;;0.20;0.20;;;13.90;99.90;;;;;;5027768;28;20412;-78
2023/08/30 03:11:13;;;;;;;0.10;0.10;;;13.90;99.90;;;;;;5020828;28;20041;-78
2023/08/30 03:13:38;;;;;;;0.10;0.10;;;13.90;99.90;;;;;;5040374;28;20060;-78
2023/08/30 03:16:11;;;;;;;0.10;0.10;;;13.90;99.90;;;;;;5030246;28;20037;-78
2023/08/30 03:18:38;;;;;;;0.10;0.10;;;13.90;99.90;;;;;;5030091;28;20048;-78
2023/08/30 03:21:03;;;;;;;0.10;0.10;;;13.90;99.90;;;;;;5028816;28;20093;-78
2023/08/30 03:23:31;;;;;;;0.10;0.10;;;13.80;99.90;;;;;;5030170;28;20053;-78
2023/08/30 03:25:58;;;;;;;0.20;0.20;;;13.80;99.90;;;;;;5022095;28;20041;-78
2023/08/30 03:28:23;;;;;;;0.20;0.20;;;13.80;99.90;;;;;;5029917;28;20128;-78
2023/08/30 03:30:49;;;;;;;0.10;0.10;;;13.70;99.90;;;;;;5028093;28;20207;-78
2023/08/30 03:33:15;;;;;;;0.20;0.20;;;13.70;99.90;;;;;;5028831;28;20033;-78
2023/08/30 03:35:40;;;;;;;0.10;0.10;;;13.70;99.90;;;;;;5027852;28;20369;-77
2023/08/30 03:38:06;;;;;;;0.20;0.20;;;13.70;99.90;;;;;;5029973;28;20037;-77
2023/08/30 03:40:32;;;;;;;0.10;0.10;;;13.70;99.90;;;;;;5030342;28;20037;-78
2023/08/30 03:42:58;;;;;;;0.20;0.20;;;13.70;99.90;;;;;;5031193;28;20048;-77
2023/08/30 03:45:23;;;;;;;0.10;0.10;;;13.60;99.90;;;;;;5046083;28;20037;-78
2023/08/30 03:47:49;;;;;;;0.17;0.17;;;13.60;99.90;;;;;;5043696;28;20079;-78
2023/08/30 03:50:15;;;;;;;0.10;0.10;;;13.60;99.90;;;;;;5042983;28;20040;-78
2023/08/30 03:52:40;;;;;;;0.10;0.10;;;13.50;99.90;;;;;;5028482;28;20037;-78
2023/08/30 03:55:06;;;;;;;0.20;0.20;;;13.40;99.90;;;;;;5012685;28;20038;-77
2023/08/30 03:57:32;;;;;;;0.10;0.10;;;13.40;99.90;;;;;;5015248;28;20044;-78
2023/08/30 03:59:58;;;;;;;0.10;0.10;;;13.30;99.90;;;;;;5030623;28;20404;-78
2023/08/30 04:02:23;;;;;;;0.10;0.10;;;13.30;99.90;;;;;;5047509;28;20384;-77
2023/08/30 04:04:49;;;;;;;0.10;0.10;;;13.30;99.90;;;;;;5048335;28;20719;-77
2023/08/30 04:07:15;;;;;;;0.13;0.13;;;13.20;99.90;;;;;;5030866;28;20041;-78
2023/08/30 04:09:41;;;;;;;0.10;0.10;;;13.20;99.90;;;;;;5030371;28;20048;-78
2023/08/30 04:12:07;;;;;;;0.15;0.15;;;13.30;99.90;;;;;;5029170;28;20516;-78
2023/08/30 04:14:33;;;;;;;0.10;0.10;;;;;;;;;;5043860;28;20138;-78
2023/08/30 04:16:58;;;;;;;0.13;0.13;;;13.20;99.90;;;;;;5044967;28;20044;-78
2023/08/30 04:19:24;;;;;;;0.10;0.10;;;13.10;99.90;;;;;;5047247;28;20048;-78
2023/08/30 04:21:50;;;;;;;0.20;0.20;;;13.20;99.90;;;;;;5022141;28;20048;-77
2023/08/30 04:24:15;;;;;;;0.10;0.10;;;13.10;99.90;;;;;;5026613;28;20127;-78
2023/08/30 04:26:41;;;;;;;0.10;0.10;;;13.10;99.90;;;;;;5048678;28;20080;-77
2023/08/30 04:29:07;;;;;;;0.20;0.20;;;13.10;99.90;;;;;;5032781;28;20044;-78
2023/08/30 04:31:33;;;;;;;0.10;0.10;;;13.10;99.90;;;;;;5047979;28;20044;-78
2023/08/30 04:33:58;;;;;;;0.20;0.20;;;13.10;99.90;;;;;;5032113;28;20042;-78
2023/08/30 04:36:24;;;;;;;0.10;0.10;;;13.10;99.90;;;;;;5026534;28;20037;-78
2023/08/30 04:38:50;;;;;;;0.10;0.10;;;13.10;99.90;;;;;;5027153;28;20041;-77
2023/08/30 04:41:15;;;;;;;0.20;0.20;;;13.10;99.90;;;;;;5049402;28;20223;-78
2023/08/30 04:43:41;;;;;;;0.10;0.10;;;13.10;99.90;;;;;;5043254;28;20115;-77
2023/08/30 04:46:07;;;;;;;0.10;0.10;;;13.10;99.90;;;;;;5042494;28;20112;-78
2023/08/30 04:48:32;;;;;;;0.10;0.10;;;13.00;99.90;;;;;;5033831;28;20144;-78
2023/08/30 04:51:00;;;;;;;0.10;0.10;;;13.00;99.90;;;;;;5034161;28;20571;-78
2023/08/30 04:53:26;;;;;;;0.10;0.10;;;13.00;99.90;;;;;;5031693;28;20037;-77
2023/08/30 04:55:52;;;;;;;0.10;0.10;;;13.00;99.90;;;;;;5014710;28;20052;-77
2023/08/30 04:58:17;;;;;;;0.20;0.20;;;13.00;99.90;;;;;;5024130;28;20516;-78
2023/08/30 05:00:43;;;;;;;0.10;0.10;;;;;;;;;;5034205;28;20504;-77
2023/08/30 05:03:09;;;;;;;0.20;0.20;;;13.00;99.90;;;;;;5025031;28;20550;-77
2023/08/30 05:05:35;;;;;;;0.20;0.20;;;13.10;99.90;;;;;;5029746;28;20056;-78
2023/08/30 05:08:00;;;;;;;0.17;0.17;;;13.10;99.90;;;;;;5031379;28;20045;-78
2023/08/30 05:10:26;;;;;;;0.10;0.10;;;13.10;99.90;;;;;;5048544;28;20044;-78
2023/08/30 05:12:53;;;;;;;0.10;0.10;;;13.10;99.90;;;;;;5028680;28;20043;-77
2023/08/30 05:15:19;;;;;;;0.13;0.13;;;13.10;99.90;;;;;;5030702;28;20076;-77
2023/08/30 05:17:45;;;;;;;0.17;0.17;;;13.10;99.90;;;;;;5030118;28;20041;-77
2023/08/30 05:20:11;;;;;;;0.10;0.10;;;13.10;99.90;;;;;;5049006;28;20033;-78
2023/08/30 05:22:36;;;;;;;0.10;0.10;;;13.10;99.90;;;;;;5033257;28;20152;-78
2023/08/30 05:25:03;;;;;;;0.10;0.10;;;13.10;99.90;;;;;;5033115;28;20048;-77
2023/08/30 05:27:28;;;;;;;0.20;0.20;;;13.20;99.90;;;;;;5030163;28;20049;-77
2023/08/30 05:29:55;;;;;;;0.10;0.10;;;13.20;99.90;;;;;;5028028;28;20511;-77
2023/08/30 05:32:21;;;;;;;0.20;0.20;;;13.20;99.90;;;;;;5050290;28;20076;-77
2023/08/30 05:34:47;;;;;;;0.20;0.20;;;13.30;99.90;;;;;;5030005;28;20036;-77
2023/08/30 05:37:13;;;;;;;0.13;0.13;;;13.30;99.90;;;;;;5033823;28;20102;-78
2023/08/30 05:39:39;;;;;;;0.17;0.17;;;13.40;99.90;;;;;;5029901;28;20528;-77
2023/08/30 05:42:05;;;;;;;0.10;0.10;;;13.40;99.90;;;;;;5027936;28;20044;-79
2023/08/30 05:44:30;;;;;;;0.10;0.10;;;13.40;99.90;;;;;;5032393;28;20037;-78
2023/08/30 05:46:56;;;;;;;0.10;0.10;;;13.40;99.90;;;;;;5028378;28;20143;-78
2023/08/30 05:49:22;;;;;;;0.10;0.10;;;13.50;99.90;;;;;;5030054;28;20045;-78
2023/08/30 05:51:47;;;;;;;0.20;0.20;;;13.50;99.90;;;;;;5031229;28;21386;-77
2023/08/30 05:54:14;;;;;;;0.20;0.20;;;13.50;99.90;;;;;;5030747;28;20036;-78
2023/08/30 05:56:39;;;;;;;0.10;0.10;;;13.50;99.90;;;;;;5032469;28;20040;-78
2023/08/30 05:59:05;;;;;;;0.10;0.10;;;13.60;99.90;;;;;;5050055;28;20095;-77
2023/08/30 06:01:31;;;;;;;0.20;0.20;;;13.50;99.90;;;;;;5031021;28;20036;-78
2023/08/30 06:03:56;;;;;;;0.10;0.10;;;13.50;99.90;;;;;;5049539;28;20138;-78
2023/08/30 06:06:22;;;;;;;0.10;0.10;;;13.50;99.90;;;;;;5032016;28;20488;-78
2023/08/30 06:08:48;;;;;;;0.10;0.10;;;13.40;99.90;;;;;;5031300;28;20263;-78
2023/08/30 06:11:14;;;;;;;0.10;0.10;;;13.50;99.90;;;;;;5032043;28;20501;-78
2023/08/30 06:13:40;;;;;;;0.20;0.20;;;13.50;99.90;;;;;;5041552;28;20064;-78
2023/08/30 06:16:06;;;;;;;0.20;0.20;;;13.50;99.90;;;;;;5048688;28;20037;-78
2023/08/30 06:18:32;;;;;;;0.20;0.20;;;13.50;99.90;;;;;;5034837;28;20045;-78
2023/08/30 06:20:58;;;;;;;0.17;0.17;;;13.60;99.90;;;;;;5031370;28;20044;-78
2023/08/30 06:23:24;;;;;;;0.10;0.10;;;13.60;99.90;;;;;;5049235;28;20094;-78
2023/08/30 06:25:56;;;;;;;0.20;0.20;;;13.70;99.90;;;;;;5031619;28;20045;-78
2023/08/30 06:28:23;;;;;;;0.10;0.10;;;13.70;99.90;;;;;;5029541;28;20501;-78
2023/08/30 06:30:49;;;;;;;0.10;0.10;;;13.70;99.90;;;;;;5026297;28;20041;-78
2023/08/30 06:33:14;;;;;;;0.20;0.20;;;13.70;99.90;;;;;;5031104;28;20124;-78
2023/08/30 06:35:41;;;;;;;0.10;0.10;;;13.80;99.90;;;;;;5032524;28;20243;-78
2023/08/30 06:38:06;;;;;;;0.55;0.30;;;13.90;99.90;;;;;;5045767;28;20033;-79
2023/08/30 06:40:33;;;;;;;0.10;0.10;;;13.90;99.90;;;;;;5030939;28;20517;-78
2023/08/30 06:42:59;;;;;;;0.20;0.20;;;14.00;99.90;;;;;;5031187;28;20045;-78
2023/08/30 06:45:25;;;;;;;0.20;0.20;;;14.00;99.90;;;;;;5017996;28;20123;-78
2023/08/30 06:47:52;;;;;;;0.10;0.10;;;14.10;99.90;;;;;;5033884;28;20049;-78
2023/08/30 06:50:18;;;;;;;0.17;0.17;;;14.10;99.90;;;;;;5025350;28;20059;-78
2023/08/30 06:52:44;;;;;;;0.10;0.10;;;14.10;99.90;;;;;;5044260;28;20452;-78
2023/08/30 06:55:09;;;;;;;0.20;0.20;;;14.10;99.90;;;;;;5030593;28;20047;-78
2023/08/30 06:57:35;;;;;;;0.10;0.10;;;14.10;99.90;;;;;;5030837;28;20542;-78
2023/08/30 07:00:07;;;;;;;0.20;0.20;;;14.20;99.90;;;;;;5044433;28;20042;-78
2023/08/30 07:02:35;;;;;;;0.20;0.20;;;14.20;99.90;;;;;;5026987;28;20047;-78
2023/08/30 07:05:01;;;;;;;0.20;0.20;;;14.20;99.90;;;;;;5030738;28;20111;-78
2023/08/30 07:07:26;;;;;;;0.10;0.10;;;14.20;99.90;;;;;;5029100;28;20037;-78
2023/08/30 07:09:52;;;;;;;0.10;0.10;;;14.30;99.90;;;;;;5046034;28;20079;-78
2023/08/30 07:12:18;;;;;;;0.10;0.10;;;14.30;99.90;;;;;;5029290;28;20103;-78
2023/08/30 07:14:43;;;;;;;0.20;0.20;;;14.40;99.90;;;;;;5028654;28;20072;-78
2023/08/30 07:17:09;;;;;;;0.10;0.10;;;14.40;99.90;;;;;;5025870;28;20037;-77
2023/08/30 07:19:35;;;;;;;0.15;0.15;;;14.40;99.90;;;;;;5045300;28;20484;-80
2023/08/30 07:22:01;;;;;;;0.10;0.10;;;14.50;99.90;;;;;;5031148;28;20048;-79
2023/08/30 07:24:26;;;;;;;0.20;0.20;;;14.40;99.90;;;;;;5046626;28;20064;-79
2023/08/30 07:26:52;;;;;;;0.20;0.20;;;14.30;99.90;;;;;;5029699;28;20048;-80
2023/08/30 07:29:17;;;;;;;0.10;0.10;;;14.50;99.90;;;;;;5049423;28;20041;-80
2023/08/30 07:31:43;;;;;;;0.20;0.20;;;14.50;99.90;;;;;;5047900;28;20067;-80
2023/08/30 07:34:09;;;;;;;0.15;0.15;;;14.50;99.90;;;;;;5031354;28;20393;-80
2023/08/30 07:36:34;;;;;;;0.20;0.20;;;14.50;99.90;;;;;;5048082;28;20416;-80
2023/08/30 07:39:00;;;;;;;0.20;0.20;;;14.60;99.90;;;;;;5037207;28;20053;-80
2023/08/30 07:41:27;;;;;;;0.10;0.10;;;14.60;99.90;;;;;;5030601;28;20446;-79
2023/08/30 07:43:52;;;;;;;0.20;0.20;;;14.80;99.90;;;;;;5024784;28;20090;-79
2023/08/30 07:46:18;;;;;;;0.10;0.10;;;14.80;99.90;;;;;;5037840;28;20041;-79
2023/08/30 07:48:44;;;;;;;0.20;0.20;;;14.80;99.90;;;;;;5037186;28;20150;-79
2023/08/30 07:51:09;;;;;;;0.10;0.10;;;15.00;99.90;;;;;;5023502;28;20547;-79
2023/08/30 07:53:35;;;;;;;0.20;0.20;;;15.00;99.90;;;;;;5043707;28;20040;-79
2023/08/30 07:56:01;;;;;;;0.20;0.20;;;15.10;99.90;;;;;;5023555;28;20495;-78
2023/08/30 07:58:26;;;;;;;0.10;0.10;;;15.20;99.90;;;;;;5023208;28;20307;-78
2023/08/30 08:00:53;;;;;;;0.20;0.20;;;15.30;99.90;;;;;;5022818;28;20079;-78
2023/08/30 08:03:22;;;;;;;0.20;0.20;;;15.30;99.90;;;;;;5024765;28;20110;-80
2023/08/30 08:05:48;;;;;;;0.20;0.20;;;15.30;99.90;;;;;;5039058;28;20106;-79
2023/08/30 08:08:14;;;;;;;0.20;0.20;;;15.40;99.90;;;;;;5023719;28;20045;-78
2023/08/30 08:10:42;;;;;;;0.10;0.10;;;15.50;99.90;;;;;;5025405;28;20138;-80
2023/08/30 08:13:07;;;;;;;0.10;0.10;;;15.50;99.90;;;;;;5046378;28;20041;-79
2023/08/30 08:15:33;;;;;;;0.20;0.20;;;15.60;99.90;;;;;;5047405;28;20047;-80
2023/08/30 08:18:02;;;;;;;0.17;0.17;;;15.70;99.90;;;;;;5046988;28;20116;-79
2023/08/30 08:20:29;;;;;;;0.20;0.20;;;15.80;99.90;;;;;;5028401;28;20044;-78
2023/08/30 08:22:54;;;;;;;0.20;0.20;;;15.90;99.90;;;;;;5052698;28;20468;-79
2023/08/30 08:25:22;;;;;;;0.10;0.10;;;15.90;99.90;;;;;;5053054;28;20037;-78
2023/08/30 08:27:47;;;;;;;0.10;0.10;;;16.00;99.90;;;;;;5015568;28;20631;-79
2023/08/30 08:30:13;;;;;;;0.30;0.30;;;16.00;99.90;;;;;;5047712;28;20052;-79
2023/08/30 08:32:39;;;;;;;0.20;0.20;;;16.10;99.90;;;;;;5042622;28;20040;-82
2023/08/30 08:35:05;;;;;;;0.20;0.20;;;16.10;99.90;;;;;;5034200;28;20136;-79
2023/08/30 08:37:32;;;;;;;0.20;0.20;;;16.20;99.90;;;;;;5029396;28;20044;-78
2023/08/30 08:39:57;;;;;;;0.17;0.17;;;16.20;99.90;;;;;;5046377;28;20560;-78
2023/08/30 08:42:23;;;;;;;0.15;0.15;;;16.20;99.90;;;;;;5031631;28;20120;-78
2023/08/30 08:44:54;;;;;;;0.20;0.20;;;16.30;99.90;;;;;;5034656;28;20049;-79
2023/08/30 08:47:21;;;;;;;0.20;0.20;;;16.30;99.90;;;;;;5051859;28;20049;-79
2023/08/30 08:49:51;;;;;;;0.20;0.20;;;16.40;99.90;;;;;;5033148;28;20311;-79
2023/08/30 08:52:16;;;;;;;0.10;0.10;;;16.40;99.90;;;;;;5048941;28;20047;-79
2023/08/30 08:54:43;;;;;;;0.20;0.20;;;16.40;99.90;;;;;;5053170;28;20116;-79
2023/08/30 08:57:09;;;;;;;0.20;0.20;;;16.50;99.90;;;;;;5033621;28;20057;-79
2023/08/30 08:59:35;;;;;;;0.20;0.20;;;16.50;99.90;;;;;;5053126;28;20056;-79
2023/08/30 09:02:02;;;;;;;0.20;0.20;;;16.60;99.90;;;;;;5050124;28;20033;-79
2023/08/30 09:04:30;;;;;;;0.20;0.20;;;16.60;99.90;;;;;;5034294;28;20052;-79
2023/08/30 09:06:57;;;;;;;0.20;0.20;;;16.60;99.90;;;;;;5033008;28;20045;-79
2023/08/30 09:09:24;;;;;;;0.57;0.30;;;16.60;99.90;;;;;;5052064;28;20047;-79
2023/08/30 09:11:49;;;;;;;0.20;0.20;;;16.60;99.90;;;;;;5051358;28;20060;-79
2023/08/30 09:14:15;;;;;;;0.30;0.30;;;16.60;99.90;;;;;;5035134;28;20037;-79
2023/08/30 09:16:41;;;;;;;0.20;0.20;;;16.60;99.90;;;;;;5032955;28;20049;-79
2023/08/30 09:19:07;;;;;;;0.22;0.22;;;16.60;99.90;;;;;;5033502;28;20400;-79
2023/08/30 09:21:33;;;;;;;0.20;0.20;;;16.50;99.90;;;;;;5052091;28;20048;-79
2023/08/30 09:24:02;;;;;;;0.20;0.20;;;16.50;99.90;;;;;;5040645;28;20550;-79
2023/08/30 09:26:29;;;;;;;0.20;0.20;;;16.50;99.90;;;;;;5013375;28;20053;-79
2023/08/30 09:28:55;;;;;;;0.17;0.17;;;16.50;99.90;;;;;;5018677;28;20171;-79
2023/08/30 09:31:21;;;;;;;0.20;0.20;;;16.50;99.90;;;;;;5033203;28;20041;-79
2023/08/30 09:33:50;;;;;;;0.20;0.20;;;16.50;99.90;;;;;;5032113;28;20056;-78
2023/08/30 09:36:15;;;;;;;0.20;0.20;;;16.50;99.90;;;;;;5033836;28;20048;-78
2023/08/30 09:38:47;;;;;;;0.20;0.20;;;16.40;99.90;;;;;;5034731;28;20051;-78
2023/08/30 09:41:13;;;;;;;0.20;0.20;;;16.50;99.90;;;;;;5032012;28;20511;-79
2023/08/30 09:43:43;;;;;;;0.10;0.10;;;16.50;99.90;;;;;;5049967;28;20036;-79
2023/08/30 09:46:09;;;;;;;0.10;0.10;;;16.40;99.90;;;;;;5025714;28;20568;-79
2023/08/30 09:48:37;;;;;;;0.10;0.10;;;16.40;99.90;;;;;;5043366;28;20077;-79
2023/08/30 09:51:07;;;;;;;0.10;0.10;;;16.40;99.90;;;;;;5026099;28;20500;-79
2023/08/30 09:53:42;;;;;;;0.10;0.10;;;16.40;99.90;;;;;;5025073;28;20076;-79
2023/08/30 09:56:10;;;;;;;0.10;0.10;;;16.40;99.90;;;;;;5043497;28;21584;-80
2023/08/30 09:58:38;;;;;;;0.20;0.20;;;16.40;99.90;;;;;;5043506;28;20348;-79
2023/08/30 10:01:04;;;;;;;0.10;0.10;;;16.40;99.90;;;;;;5042987;28;20451;-80
2023/08/30 10:03:31;;;;;;;0.15;0.15;;;16.40;99.90;;;;;;5040130;28;20053;-79
2023/08/30 10:05:58;;;;;;;0.20;0.20;;;16.40;99.90;;;;;;5028163;28;20069;-79
2023/08/30 10:08:29;;;;;;;0.20;0.20;;;16.40;99.90;;;;;;5040129;28;20037;-78
2023/08/30 10:10:57;;;;;;;0.20;0.20;;;16.50;99.90;;;;;;5022632;28;20124;-78
2023/08/30 10:13:24;;;;;;;0.20;0.20;;;16.60;99.90;;;;;;5025118;28;20051;-79
2023/08/30 10:15:58;;;;;;;0.20;0.20;;;16.60;99.90;;;;;;5023569;28;20048;-79
2023/08/30 10:18:28;;;;;;;0.20;0.20;;;16.60;99.90;;;;;;5042592;28;20036;-80
2023/08/30 10:20:55;;;;;;;0.20;0.20;;;16.60;99.90;;;;;;5024997;28;20060;-79
2023/08/30 10:23:22;;;;;;;0.20;0.20;;;16.80;99.90;;;;;;5024289;28;20064;-79
2023/08/30 10:25:50;;;;;;;0.20;0.20;;;16.80;99.90;;;;;;5042839;28;20102;-80
2023/08/30 10:28:17;;;;;;;0.20;0.20;;;16.80;99.90;;;;;;5026493;28;20092;-79
2023/08/30 10:30:43;;;;;;;0.10;0.10;;;16.80;99.90;;;;;;5043396;28;20045;-79
2023/08/30 10:33:13;;;;;;;0.20;0.20;;;16.80;99.90;;;;;;5025368;28;20068;-80
2023/08/30 10:35:49;;;;;;;0.20;0.20;;;16.70;99.90;;;;;;5040321;28;20397;-80
2023/08/30 10:38:28;;;;;;;0.20;0.20;;;16.90;99.90;;;;;;5026937;28;20032;-80
2023/08/30 10:40:54;;;;;;;0.10;0.10;;;16.90;99.90;;;;;;5033338;28;20467;-79
2023/08/30 10:43:30;;;;;;;0.10;0.10;;;16.90;99.90;;;;;;5028295;28;20477;-80
2023/08/30 10:46:06;;;;;;;0.20;0.20;;;17.00;99.90;;;;;;5048273;28;20141;-80
2023/08/30 10:48:40;;;;;;;0.20;0.20;;;17.00;99.90;;;;;;5031682;28;20056;-80
2023/08/30 10:51:37;;;;;;;0.20;0.20;;;17.10;99.90;;;;;;5030167;28;20055;-79
2023/08/30 10:54:15;;;;;;;0.13;0.13;;;17.10;99.90;;;;;;5004560;28;20053;-80
2023/08/30 10:57:00;;;;;;;0.20;0.20;;;17.20;99.90;;;;;;5029491;28;20087;-79
2023/08/30 10:59:26;;;;;;;0.10;0.10;;;17.30;99.90;;;;;;5031258;28;20060;-80
2023/08/30 11:01:53;;;;;;;0.20;0.20;;;17.30;99.90;;;;;;5028952;28;20040;-80
2023/08/30 11:04:21;;;;;;;0.10;0.10;;;17.30;99.90;;;;;;5043426;28;20500;-80
2023/08/30 11:06:49;;;;;;;0.20;0.20;;;17.30;99.90;;;;;;5041674;28;20040;-80
2023/08/30 11:09:19;;;;;;;0.20;0.20;;;17.30;99.90;;;;;;5028444;28;20041;-80
2023/08/30 11:11:47;;;;;;;0.20;0.20;;;17.20;99.90;;;;;;5028643;28;20045;-79
2023/08/30 11:14:13;;;;;;;0.20;0.20;;;17.30;99.90;;;;;;5047987;28;20045;-80
2023/08/30 11:16:39;;;;;;;0.20;0.20;;;17.30;99.90;;;;;;5024725;28;20396;-79
2023/08/30 11:19:07;;;;;;;0.20;0.20;;;17.30;99.90;;;;;;5046788;28;20041;-80
2023/08/30 11:21:36;;;;;;;0.20;0.20;;;17.30;99.90;;;;;;5027843;28;20496;-79
2023/08/30 11:24:03;;;;;;;0.10;0.10;;;17.30;99.90;;;;;;5028562;28;20170;-80
2023/08/30 11:26:29;;;;;;;0.22;0.20;;;17.40;99.90;;;;;;5030937;28;20041;-79
2023/08/30 11:28:55;;;;;;;0.20;0.20;;;17.40;99.90;;;;;;5025865;28;20036;-80
2023/08/30 11:31:29;;;;;;;0.13;0.13;;;17.50;99.90;;;;;;5047982;28;20124;-79
2023/08/30 11:33:56;;;;;;;0.20;0.20;;;17.50;99.90;;;;;;5048193;28;20037;-79
2023/08/30 11:36:25;;;;;;;0.22;0.22;;;17.60;99.90;;;;;;5046262;28;20036;-79
2023/08/30 11:38:52;;;;;;;0.20;0.20;;;17.60;99.90;;;;;;5018346;28;20053;-80
2023/08/30 11:41:19;;;;;;;0.20;0.20;;;17.60;99.90;;;;;;5031131;28;20523;-79
2023/08/30 11:43:45;;;;;;;0.20;0.20;;;17.60;99.90;;;;;;5026461;28;20045;-79
2023/08/30 11:46:12;;;;;;;0.20;0.20;;;17.60;99.90;;;;;;5047510;28;20446;-78
2023/08/30 11:48:39;;;;;;;0.20;0.20;;;17.60;99.90;;;;;;5046265;28;20041;-79
2023/08/30 11:51:06;;;;;;;0.10;0.10;;;17.60;99.90;;;;;;5029942;28;20373;-79
2023/08/30 11:53:32;;;;;;;0.20;0.20;;;17.50;99.90;;;;;;5041191;28;20040;-79
2023/08/30 11:55:57;;;;;;;0.20;0.20;;;17.50;99.90;;;;;;5048674;28;20044;-79
2023/08/30 11:58:23;;;;;;;0.20;0.20;;;17.60;99.90;;;;;;5030743;28;20110;-79
2023/08/30 12:00:54;;;;;;;0.10;0.10;;;17.60;99.90;;;;;;5047169;28;20610;-80
2023/08/30 12:03:20;;;;;;;0.20;0.20;;;17.70;99.90;;;;;;5030598;28;20040;-80
2023/08/30 12:05:50;;;;;;;0.20;0.20;;;17.70;99.90;;;;;;5031043;28;20049;-80
2023/08/30 12:08:30;;;;;;;0.20;0.20;;;17.70;99.90;;;;;;5036941;28;20048;-80
2023/08/30 12:10:56;;;;;;;0.35;0.35;;;17.70;99.90;;;;;;5048100;28;20045;-80
2023/08/30 12:13:26;;;;;;;0.17;0.17;;;17.70;99.90;;;;;;5029774;28;20094;-79
2023/08/30 12:15:53;;;;;;;0.17;0.17;;;17.60;99.90;;;;;;5024246;28;20056;-79
2023/08/30 12:18:27;;;;;;;0.20;0.20;;;17.50;99.90;;;;;;5045094;28;20084;-80
2023/08/30 12:20:58;;;;;;;0.20;0.20;;;17.40;99.90;;;;;;5030958;28;20128;-79
2023/08/30 12:23:25;;;;;;;0.20;0.20;;;17.40;99.90;;;;;;5026965;28;20044;-80
2023/08/30 12:26:06;;;;;;;0.20;0.20;;;17.40;99.90;;;;;;5030381;28;20052;-81
2023/08/30 12:28:40;;;;;;;0.13;0.13;;;17.30;99.90;;;;;;5029886;28;20048;-81
2023/08/30 12:31:07;;;;;;;0.20;0.20;;;17.30;99.90;;;;;;5049302;28;20049;-81
2023/08/30 12:33:37;;;;;;;0.10;0.10;;;17.20;99.90;;;;;;5029624;28;20337;-81
2023/08/30 12:36:03;;;;;;;0.20;0.20;;;17.10;99.90;;;;;;5023394;28;20057;-81
2023/08/30 12:38:29;;;;;;;0.20;0.20;;;17.10;99.90;;;;;;5028904;28;20073;-81
2023/08/30 12:40:55;;;;;;;0.15;0.15;;;17.20;99.90;;;;;;5027929;28;20045;-80
2023/08/30 12:43:22;;;;;;;0.15;0.15;;;17.20;99.90;;;;;;5028314;28;20463;-82
2023/08/30 12:45:48;;;;;;;0.20;0.20;;;17.20;99.90;;;;;;5029265;28;20060;-81
2023/08/30 12:48:15;;;;;;;0.20;0.20;;;17.10;99.90;;;;;;5031089;28;20083;-83